createdAt,value
2022-08-25T00:04:18.406Z,22.75
2022-08-25T00:09:23.538Z,22.72
2022-08-25T00:14:29.501Z,22.60
2022-08-25T00:19:34.976Z,22.47
2022-08-25T00:24:36.912Z,22.28
2022-08-25T00:29:39.187Z,22.14
2022-08-25T00:34:41.070Z,22.15
2022-08-25T00:39:42.959Z,22.15
2022-08-25T00:51:47.571Z,22.22
2022-08-25T00:56:51.454Z,22.14
2022-08-25T01:01:54.936Z,22.09
2022-08-25T01:06:58.444Z,22.09
2022-08-25T01:12:01.266Z,22.11
2022-08-25T01:17:03.829Z,22.07
2022-08-25T01:22:05.958Z,22.09
2022-08-25T01:27:08.288Z,22.18
2022-08-25T01:32:13.472Z,22.21
2022-08-25T01:37:16.749Z,22.23
2022-08-25T01:42:47.208Z,22.25
2022-08-25T01:47:49.103Z,22.16
2022-08-25T01:53:15.507Z,22.16
2022-08-25T01:58:25.246Z,22.12
2022-08-25T02:03:28.205Z,22.10
2022-08-25T02:08:30.146Z,22.11
2022-08-25T02:13:32.781Z,22.17
2022-08-25T02:18:35.254Z,22.20
2022-08-25T02:23:37.507Z,22.18
2022-08-25T02:28:40.127Z,22.13
2022-08-25T02:33:42.396Z,22.04
2022-08-25T02:38:44.838Z,22.07
2022-08-25T02:43:48.680Z,22.16
2022-08-25T02:48:52.997Z,22.24
2022-08-25T02:53:54.881Z,22.25
2022-08-25T02:58:57.351Z,22.19
2022-08-25T03:04:01.879Z,22.10
2022-08-25T03:09:04.546Z,22.02
2022-08-25T03:14:07.918Z,22.00
2022-08-25T03:19:10.120Z,22.01
2022-08-25T03:24:12.174Z,21.93
2022-08-25T03:29:14.468Z,21.84
2022-08-25T03:34:18.219Z,21.83
2022-08-25T03:39:23.056Z,21.81
2022-08-25T03:44:25.185Z,21.68
2022-08-25T03:49:27.080Z,21.57
2022-08-25T03:54:29.698Z,21.60
2022-08-25T03:59:31.562Z,21.48
2022-08-25T04:04:33.628Z,21.42
2022-08-25T04:09:36.971Z,21.53
2022-08-25T04:14:38.939Z,21.56
2022-08-25T04:19:40.986Z,21.54
2022-08-25T04:24:42.871Z,21.54
2022-08-25T04:29:45.031Z,21.60
2022-08-25T04:34:46.920Z,21.58
2022-08-25T04:39:48.859Z,21.67
2022-08-25T04:44:50.920Z,21.62
2022-08-25T04:49:53.265Z,21.57
2022-08-25T04:54:55.516Z,21.55
2022-08-25T04:59:57.517Z,21.60
2022-08-25T05:04:59.526Z,21.74
2022-08-25T05:10:01.451Z,21.92
2022-08-25T05:15:23.992Z,22.03
2022-08-25T05:20:26.726Z,22.19
2022-08-25T05:25:28.646Z,22.33
2022-08-25T05:30:30.620Z,22.41
2022-08-25T05:35:32.784Z,22.56
2022-08-25T05:40:34.733Z,22.67
2022-08-25T05:45:38.162Z,22.77
2022-08-25T05:50:40.138Z,22.89
2022-08-25T05:55:45.139Z,22.99
2022-08-25T06:00:47.176Z,23.15
2022-08-25T06:05:49.855Z,23.31
2022-08-25T06:10:54.868Z,23.40
2022-08-25T06:16:00.712Z,23.59
2022-08-25T06:21:13.379Z,23.75
2022-08-25T06:26:21.126Z,23.85
2022-08-25T06:31:23.648Z,23.99
2022-08-25T06:36:25.565Z,24.11
2022-08-25T06:41:36.642Z,24.26
2022-08-25T06:46:39.422Z,24.53
2022-08-25T06:51:42.413Z,24.75
2022-08-25T06:56:44.337Z,24.95
2022-08-25T07:01:46.362Z,25.17
2022-08-25T07:06:51.705Z,25.41
2022-08-25T07:11:54.318Z,25.71
2022-08-25T07:16:56.266Z,26.03
2022-08-25T07:21:58.231Z,26.28
2022-08-25T07:27:00.318Z,26.38
2022-08-25T07:32:02.678Z,26.45
2022-08-25T07:37:05.284Z,26.53
2022-08-25T07:42:12.102Z,26.54
2022-08-25T07:47:16.081Z,26.56
2022-08-25T07:52:17.980Z,26.72
2022-08-25T07:57:22.258Z,26.98
2022-08-25T08:02:24.757Z,27.30
2022-08-25T08:07:43.295Z,27.40
2022-08-25T08:12:46.168Z,27.44
2022-08-25T08:17:48.065Z,27.38
2022-08-25T08:22:50.165Z,27.34
2022-08-25T08:27:54.880Z,27.31
2022-08-25T08:33:11.223Z,27.43
2022-08-25T08:38:20.813Z,27.56
2022-08-25T08:43:25.089Z,27.61
2022-08-25T08:48:38.854Z,27.62
2022-08-25T08:53:43.898Z,27.63
2022-08-25T08:59:09.709Z,27.80
2022-08-25T09:04:26.516Z,27.83
2022-08-25T09:09:35.957Z,27.88
2022-08-25T09:14:53.614Z,27.92
2022-08-25T09:20:25.041Z,28.09
2022-08-25T09:25:58.362Z,28.27
2022-08-25T09:31:28.824Z,28.45
2022-08-25T09:36:37.492Z,28.57
2022-08-25T09:41:51.338Z,28.88
2022-08-25T09:47:02.409Z,28.98
2022-08-25T09:52:41.417Z,29.26
2022-08-25T09:57:43.600Z,29.50
2022-08-25T10:03:07.092Z,29.67
2022-08-25T10:08:24.962Z,29.81
2022-08-25T10:13:42.216Z,29.97
2022-08-25T10:18:44.159Z,30.16
2022-08-25T10:23:52.637Z,30.15
2022-08-25T10:29:06.697Z,30.36
2022-08-25T10:34:44.413Z,30.57
2022-08-25T10:39:55.879Z,30.48
2022-08-25T10:45:30.031Z,30.51
2022-08-25T10:50:49.031Z,30.38
2022-08-25T10:56:23.191Z,30.29
2022-08-25T11:01:42.964Z,30.28
2022-08-25T11:07:07.905Z,30.52
2022-08-25T11:12:27.004Z,30.86
2022-08-25T11:17:39.844Z,31.16
2022-08-25T11:23:07.029Z,31.33
2022-08-25T11:28:19.007Z,31.47
2022-08-25T11:33:24.864Z,31.54
2022-08-25T11:39:15.809Z,31.45
2022-08-25T11:44:26.828Z,31.47
2022-08-25T11:49:39.914Z,31.59
2022-08-25T11:54:45.793Z,31.81
2022-08-25T11:59:50.811Z,31.94
2022-08-25T12:04:55.483Z,31.68
2022-08-25T12:10:03.485Z,31.78
2022-08-25T12:15:23.756Z,31.92
2022-08-25T12:20:55.035Z,31.82
2022-08-25T12:26:01.393Z,31.78
2022-08-25T12:31:31.759Z,31.58
2022-08-25T12:36:34.918Z,31.55
2022-08-25T12:41:57.203Z,31.76
2022-08-25T12:47:27.308Z,31.99
2022-08-25T12:52:31.084Z,32.08
2022-08-25T12:57:57.770Z,32.26
2022-08-25T13:03:27.748Z,32.39
2022-08-25T13:09:08.248Z,32.46
2022-08-25T13:14:10.436Z,32.60
2022-08-25T13:19:19.902Z,32.80
2022-08-25T13:24:27.103Z,32.95
2022-08-25T13:29:36.418Z,33.04
2022-08-25T13:34:44.038Z,33.04
2022-08-25T13:39:56.350Z,33.14
2022-08-25T13:44:58.763Z,33.18
2022-08-25T13:50:20.567Z,33.28
2022-08-25T13:55:50.698Z,33.29
2022-08-25T14:01:49.391Z,33.33
2022-08-25T14:07:13.231Z,33.32
2022-08-25T14:12:31.111Z,33.18
2022-08-25T14:17:40.097Z,33.00
2022-08-25T14:22:42.526Z,33.01
2022-08-25T14:28:06.811Z,32.88
2022-08-25T14:33:08.941Z,32.63
2022-08-25T14:38:12.045Z,32.46
2022-08-25T14:43:15.814Z,32.41
2022-08-25T14:48:49.021Z,32.52
2022-08-25T14:53:56.920Z,32.49
2022-08-25T14:59:01.544Z,32.57
2022-08-25T15:04:10.215Z,32.54
2022-08-25T15:09:17.186Z,32.27
2022-08-25T15:14:28.420Z,32.16
2022-08-25T15:19:35.405Z,32.09
2022-08-25T15:24:37.898Z,32.02
2022-08-25T15:29:41.898Z,31.96
2022-08-25T15:34:44.022Z,31.92
2022-08-25T15:39:47.805Z,31.95
2022-08-25T15:44:53.051Z,31.94
2022-08-25T15:50:07.064Z,31.94
2022-08-25T15:55:10.660Z,31.84
2022-08-25T16:00:19.329Z,31.74
2022-08-25T16:05:26.120Z,31.58
2022-08-25T16:10:33.340Z,31.50
2022-08-25T16:15:39.412Z,31.34
2022-08-25T16:20:47.820Z,31.24
2022-08-25T16:25:49.905Z,31.05
2022-08-25T16:30:54.456Z,30.93
2022-08-25T16:36:07.164Z,30.87
2022-08-25T16:41:11.535Z,30.71
2022-08-25T16:46:16.370Z,30.65
2022-08-25T16:51:22.639Z,30.58
2022-08-25T16:56:28.966Z,30.46
2022-08-25T17:01:34.370Z,30.31
2022-08-25T17:06:39.838Z,30.20
2022-08-25T17:11:48.960Z,30.09
2022-08-25T17:16:54.879Z,29.99
2022-08-25T17:21:58.914Z,29.89
2022-08-25T17:27:02.222Z,29.81
2022-08-25T17:32:05.358Z,29.72
2022-08-25T17:37:08.192Z,29.67
2022-08-25T17:42:10.510Z,29.61
2022-08-25T17:47:12.716Z,29.56
2022-08-25T17:52:17.269Z,29.46
2022-08-25T17:57:19.672Z,29.30
2022-08-25T18:02:21.535Z,29.17
2022-08-25T18:07:24.128Z,29.09
2022-08-25T18:12:27.500Z,28.96
2022-08-25T18:17:29.616Z,28.87
2022-08-25T18:22:32.643Z,28.78
2022-08-25T18:27:35.848Z,28.69
2022-08-25T18:32:38.444Z,28.63
2022-08-25T18:38:00.162Z,28.59
2022-08-25T18:43:05.801Z,28.52
2022-08-25T18:48:08.901Z,28.46
2022-08-25T18:53:11.751Z,28.39
2022-08-25T18:58:14.703Z,28.31
2022-08-25T19:03:20.007Z,28.25
2022-08-25T19:08:22.153Z,28.19
2022-08-25T19:13:25.601Z,28.16
2022-08-25T19:18:29.175Z,28.10
2022-08-25T19:23:32.992Z,28.05
2022-08-25T19:28:36.628Z,27.99
2022-08-25T19:33:44.858Z,27.94
2022-08-25T19:38:47.709Z,27.87
2022-08-25T19:43:56.126Z,27.81
2022-08-25T19:49:01.504Z,27.75
2022-08-25T19:54:09.152Z,27.63
2022-08-25T19:59:12.405Z,27.52
2022-08-25T20:04:14.581Z,27.37
2022-08-25T20:09:35.633Z,27.32
2022-08-25T20:14:41.192Z,27.27
2022-08-25T20:19:43.395Z,27.21
2022-08-25T20:24:51.119Z,27.10
2022-08-25T20:29:58.425Z,26.95
2022-08-25T20:35:01.874Z,26.84
2022-08-25T20:40:05.139Z,26.86
2022-08-25T20:45:08.421Z,26.83
2022-08-25T20:50:11.563Z,26.73
2022-08-25T20:55:13.980Z,26.70
2022-08-25T21:00:18.047Z,26.58
2022-08-25T21:05:20.407Z,26.49
2022-08-25T21:10:22.569Z,26.44
2022-08-25T21:15:26.290Z,26.35
2022-08-25T21:20:29.510Z,26.23
2022-08-25T21:25:31.381Z,26.12
2022-08-25T21:30:33.542Z,26.13
2022-08-25T21:35:39.976Z,26.01
2022-08-25T21:40:44.833Z,25.93
2022-08-25T21:45:47.259Z,25.79
2022-08-25T21:50:49.201Z,25.80
2022-08-25T21:55:51.124Z,25.82
2022-08-25T22:00:53.052Z,25.79
2022-08-25T22:05:55.397Z,25.77
2022-08-25T22:10:57.434Z,25.70
2022-08-25T22:15:59.638Z,25.59
2022-08-25T22:21:07.220Z,25.55
2022-08-25T22:26:10.937Z,25.59
2022-08-25T22:31:14.436Z,25.55
2022-08-25T22:36:26.593Z,25.54
2022-08-25T22:41:31.654Z,25.49
2022-08-25T22:46:35.027Z,25.40
2022-08-25T22:51:37.900Z,25.33
2022-08-25T22:56:39.895Z,25.23
2022-08-25T23:01:43.841Z,25.25
2022-08-25T23:06:46.485Z,25.27
2022-08-25T23:11:51.244Z,25.27
2022-08-25T23:16:53.577Z,25.21
2022-08-25T23:22:24.837Z,25.11
2022-08-25T23:27:28.970Z,24.98
2022-08-25T23:32:30.900Z,24.93
2022-08-25T23:37:33.736Z,24.91
2022-08-25T23:42:36.333Z,24.92
2022-08-25T23:47:39.304Z,24.87
2022-08-25T23:52:41.319Z,24.73
2022-08-25T23:57:43.245Z,24.71
